createdAt,value
2018-12-19T00:00:38.837Z,297.08
2018-12-19T00:01:38.826Z,297.56
2018-12-19T00:02:38.812Z,297.31
2018-12-19T00:03:38.822Z,296.98
2018-12-19T00:04:38.797Z,297.34
2018-12-19T00:05:38.797Z,297.16
2018-12-19T00:06:38.774Z,296.92
2018-12-19T00:07:38.773Z,296.67
2018-12-19T00:08:38.762Z,297.23
2018-12-19T00:09:38.738Z,296.62
2018-12-19T00:10:38.724Z,297.35
2018-12-19T00:11:38.716Z,297.34
2018-12-19T00:12:38.712Z,296.54
2018-12-19T00:13:38.694Z,297.16
2018-12-19T00:14:38.674Z,297.48
2018-12-19T00:15:38.710Z,297.73
2018-12-19T00:16:38.661Z,296.72
2018-12-19T00:17:38.644Z,297.29
2018-12-19T00:18:38.640Z,297.24
2018-12-19T00:19:38.643Z,297.58
2018-12-19T00:20:38.618Z,297.41
2018-12-19T00:21:38.600Z,297.49
2018-12-19T00:22:38.594Z,296.88
2018-12-19T00:23:38.580Z,297.00
2018-12-19T00:24:38.578Z,296.80
2018-12-19T00:25:38.562Z,297.76
2018-12-19T00:26:38.561Z,297.04
2018-12-19T00:27:38.548Z,297.04
2018-12-19T00:28:38.539Z,297.03
2018-12-19T00:29:38.529Z,296.45
2018-12-19T00:30:38.514Z,297.28
2018-12-19T00:31:38.497Z,297.56
2018-12-19T00:32:38.525Z,297.32
2018-12-19T00:33:38.472Z,297.76
2018-12-19T00:34:38.474Z,297.12
2018-12-19T00:35:38.463Z,297.39
2018-12-19T00:36:38.450Z,297.71
2018-12-19T00:37:38.457Z,297.61
2018-12-19T00:38:38.431Z,297.43
2018-12-19T00:39:38.407Z,297.08
2018-12-19T00:40:38.401Z,298.17
2018-12-19T00:41:38.395Z,297.40
2018-12-19T00:42:38.416Z,297.22
2018-12-19T00:43:38.380Z,296.84
2018-12-19T00:44:38.362Z,297.22
2018-12-19T00:45:38.352Z,296.66
2018-12-19T00:46:38.346Z,297.24
2018-12-19T00:47:38.338Z,297.28
2018-12-19T00:48:38.322Z,297.31
2018-12-19T00:49:38.323Z,297.07
2018-12-19T00:50:38.306Z,296.26
2018-12-19T00:51:38.284Z,296.25
2018-12-19T00:52:38.280Z,297.09
2018-12-19T00:53:38.269Z,297.70
2018-12-19T00:54:38.271Z,297.35
2018-12-19T00:55:38.263Z,297.39
2018-12-19T00:56:38.250Z,297.56
2018-12-19T00:57:38.233Z,297.00
2018-12-19T00:58:38.220Z,297.06
2018-12-19T00:59:38.233Z,297.01
2018-12-19T01:00:38.220Z,296.85
2018-12-19T01:01:38.181Z,297.46
2018-12-19T01:02:38.167Z,296.81
2018-12-19T01:03:38.157Z,297.22
2018-12-19T01:04:38.152Z,296.95
2018-12-19T01:05:38.153Z,296.75
2018-12-19T01:06:38.129Z,296.84
2018-12-19T01:07:38.116Z,297.53
2018-12-19T01:08:38.104Z,296.93
2018-12-19T01:09:38.099Z,296.81
2018-12-19T01:10:38.127Z,296.79
2018-12-19T01:11:38.099Z,297.72
2018-12-19T01:12:38.135Z,297.05
2018-12-19T01:13:38.053Z,296.11
2018-12-19T01:14:38.058Z,296.99
2018-12-19T01:15:38.048Z,296.84
2018-12-19T01:16:38.027Z,296.83
2018-12-19T01:17:38.035Z,297.32
2018-12-19T01:18:38.041Z,297.30
2018-12-19T01:19:38.064Z,297.54
2018-12-19T01:20:37.982Z,297.82
2018-12-19T01:21:37.983Z,297.35
2018-12-19T01:22:37.966Z,297.56
2018-12-19T01:23:37.994Z,297.41
2018-12-19T01:24:38.043Z,296.92
2018-12-19T01:25:37.947Z,297.57
2018-12-19T01:26:37.937Z,297.55
2018-12-19T01:27:37.928Z,296.98
2018-12-19T01:28:37.908Z,296.54
2018-12-19T01:29:37.893Z,297.04
2018-12-19T01:30:37.899Z,297.10
2018-12-19T01:31:37.877Z,296.63
2018-12-19T01:32:37.871Z,297.84
2018-12-19T01:33:37.871Z,297.23
2018-12-19T01:34:37.853Z,298.03
2018-12-19T01:35:37.841Z,296.81
2018-12-19T01:36:37.821Z,297.23
2018-12-19T01:37:37.798Z,297.17
2018-12-19T01:38:37.793Z,297.28
2018-12-19T01:39:37.779Z,297.17
2018-12-19T01:40:37.792Z,296.94
2018-12-19T01:41:37.750Z,297.45
2018-12-19T01:42:37.737Z,297.25
2018-12-19T01:43:37.736Z,296.66
2018-12-19T01:44:37.732Z,297.21
2018-12-19T01:45:37.740Z,297.14
2018-12-19T01:46:37.704Z,297.12
2018-12-19T01:47:37.691Z,296.96
2018-12-19T01:48:37.681Z,296.68
2018-12-19T01:49:37.677Z,297.53
2018-12-19T01:50:37.659Z,297.22
2018-12-19T01:51:37.652Z,297.14
2018-12-19T01:52:37.650Z,296.80
2018-12-19T01:53:37.638Z,296.54
2018-12-19T01:54:37.624Z,297.90
2018-12-19T01:55:37.615Z,297.32
2018-12-19T01:56:37.596Z,297.61
2018-12-19T01:57:37.595Z,297.34
2018-12-19T01:58:37.586Z,297.80
2018-12-19T01:59:37.558Z,296.97
2018-12-19T02:00:37.557Z,297.21
2018-12-19T02:01:37.577Z,297.36
2018-12-19T02:02:37.533Z,297.13
2018-12-19T02:03:37.536Z,297.15
2018-12-19T02:04:37.529Z,297.19
2018-12-19T02:05:37.510Z,297.44
2018-12-19T02:06:37.494Z,296.70
2018-12-19T02:07:37.495Z,297.45
2018-12-19T02:08:37.484Z,296.76
2018-12-19T02:09:37.458Z,297.14
2018-12-19T02:10:37.469Z,297.91
2018-12-19T02:11:37.452Z,296.85
2018-12-19T02:12:37.436Z,296.72
2018-12-19T02:13:37.415Z,297.60
2018-12-19T02:14:37.413Z,297.31
2018-12-19T02:15:37.403Z,297.53
2018-12-19T02:16:37.385Z,297.00
2018-12-19T02:17:37.373Z,296.91
2018-12-19T02:18:37.376Z,297.48
2018-12-19T02:19:37.363Z,296.92
2018-12-19T02:20:37.380Z,297.33
2018-12-19T02:21:37.355Z,296.73
2018-12-19T02:22:37.357Z,297.72
2018-12-19T02:23:37.316Z,297.47
2018-12-19T02:24:37.314Z,296.92
2018-12-19T02:25:37.287Z,296.75
2018-12-19T02:26:37.283Z,297.36
2018-12-19T02:27:37.279Z,297.83
2018-12-19T02:28:37.270Z,297.26
2018-12-19T02:29:37.243Z,297.39
2018-12-19T02:30:37.237Z,296.77
2018-12-19T02:31:37.232Z,297.85
2018-12-19T02:32:37.223Z,297.34
2018-12-19T02:33:37.228Z,297.31
2018-12-19T02:34:37.199Z,296.70
2018-12-19T02:35:37.190Z,297.03
2018-12-19T02:36:37.187Z,297.17
2018-12-19T02:37:37.162Z,297.46
2018-12-19T02:38:37.162Z,296.77
2018-12-19T02:39:37.142Z,297.01
2018-12-19T02:40:37.144Z,297.26
2018-12-19T02:41:37.127Z,297.44
2018-12-19T02:42:37.112Z,297.48
2018-12-19T02:43:37.113Z,297.62
2018-12-19T02:44:37.096Z,297.47
2018-12-19T02:45:37.073Z,296.73
2018-12-19T02:46:37.070Z,296.37
2018-12-19T02:47:37.069Z,297.45
2018-12-19T02:48:37.630Z,297.06
2018-12-19T02:49:37.054Z,296.86
2018-12-19T02:50:37.032Z,296.98
2018-12-19T02:51:37.038Z,297.29
2018-12-19T02:52:37.011Z,297.06
2018-12-19T02:53:37.008Z,296.68
2018-12-19T02:54:36.994Z,297.38
2018-12-19T02:55:36.983Z,297.49
2018-12-19T02:56:36.978Z,297.67
2018-12-19T02:57:36.961Z,297.16
2018-12-19T02:58:36.955Z,297.23
2018-12-19T02:59:36.926Z,296.41
2018-12-19T03:00:36.919Z,297.84
2018-12-19T03:01:36.916Z,297.06
2018-12-19T03:02:36.957Z,297.19
2018-12-19T03:03:36.887Z,297.94
2018-12-19T03:04:36.895Z,296.96
2018-12-19T03:05:36.872Z,296.84
2018-12-19T03:06:36.856Z,296.83
2018-12-19T03:07:36.864Z,297.51
2018-12-19T03:08:36.841Z,297.33
2018-12-19T03:09:42.804Z,296.86
2018-12-19T03:10:37.840Z,297.27
2018-12-19T03:11:36.814Z,296.88
2018-12-19T03:12:36.793Z,296.74
2018-12-19T03:13:36.786Z,297.72
2018-12-19T03:14:36.767Z,297.34
2018-12-19T03:15:36.762Z,296.94
2018-12-19T03:16:36.752Z,297.12
2018-12-19T03:17:36.746Z,297.12
2018-12-19T03:18:36.737Z,297.37
2018-12-19T03:19:36.739Z,297.47
2018-12-19T03:20:36.710Z,297.06
2018-12-19T03:21:36.701Z,297.29
2018-12-19T03:22:36.685Z,296.76
2018-12-19T03:23:36.683Z,297.26
2018-12-19T03:24:36.676Z,297.21
2018-12-19T03:25:36.656Z,297.13
2018-12-19T03:26:36.645Z,296.49
2018-12-19T03:27:36.641Z,297.10
2018-12-19T03:28:36.627Z,297.47
2018-12-19T03:29:36.614Z,297.32
2018-12-19T03:30:36.601Z,297.41
2018-12-19T03:31:36.605Z,297.63
2018-12-19T03:32:36.628Z,297.40
2018-12-19T03:33:36.573Z,298.26
2018-12-19T03:34:36.569Z,297.81
2018-12-19T03:35:36.551Z,296.81
2018-12-19T03:36:36.538Z,297.39
2018-12-19T03:37:36.522Z,297.33
2018-12-19T03:38:36.523Z,297.19
2018-12-19T03:39:36.513Z,296.96
2018-12-19T03:40:36.517Z,297.09
2018-12-19T03:41:36.488Z,297.38
2018-12-19T03:42:36.497Z,297.54
2018-12-19T03:43:36.461Z,297.09
2018-12-19T03:44:36.463Z,296.36
2018-12-19T03:45:36.449Z,297.09
2018-12-19T03:46:36.450Z,297.05
2018-12-19T03:47:36.435Z,297.53
2018-12-19T03:48:36.410Z,296.77
2018-12-19T03:49:36.395Z,297.76
2018-12-19T03:50:36.405Z,296.61
2018-12-19T03:51:36.381Z,297.77
2018-12-19T03:52:36.363Z,297.37
2018-12-19T03:53:36.409Z,297.01
2018-12-19T03:54:36.382Z,297.61
2018-12-19T03:55:36.345Z,296.70
2018-12-19T03:56:36.332Z,297.17
2018-12-19T03:57:36.322Z,297.44
2018-12-19T03:58:36.307Z,296.13
2018-12-19T03:59:36.295Z,296.57
2018-12-19T04:00:36.296Z,297.77
2018-12-19T04:01:36.281Z,296.79
2018-12-19T04:02:36.267Z,297.26
2018-12-19T04:03:36.261Z,296.52
2018-12-19T04:04:36.371Z,296.81
2018-12-19T04:05:36.253Z,297.41
2018-12-19T04:06:36.261Z,297.11
2018-12-19T04:07:36.232Z,297.66
2018-12-19T04:08:36.247Z,297.08
2018-12-19T04:09:36.276Z,296.65
2018-12-19T04:10:36.195Z,297.23
2018-12-19T04:11:36.189Z,296.60
2018-12-19T04:12:36.173Z,297.07
2018-12-19T04:13:36.194Z,297.36
2018-12-19T04:14:36.149Z,296.94
2018-12-19T04:15:36.202Z,297.27
2018-12-19T04:16:36.143Z,297.22
2018-12-19T04:17:36.118Z,296.97
2018-12-19T04:18:36.112Z,297.65
2018-12-19T04:19:36.100Z,296.30
2018-12-19T04:20:36.098Z,296.84
2018-12-19T04:21:36.069Z,297.12
2018-12-19T04:22:36.064Z,296.75
2018-12-19T04:23:36.046Z,297.37
2018-12-19T04:24:36.034Z,297.35
2018-12-19T04:25:36.030Z,297.03
2018-12-19T04:26:36.021Z,296.97
2018-12-19T04:27:36.013Z,297.75
2018-12-19T04:28:35.993Z,297.87
2018-12-19T04:29:35.998Z,296.75
2018-12-19T04:30:35.987Z,296.95
2018-12-19T04:31:35.962Z,297.28
2018-12-19T04:32:35.967Z,296.79
2018-12-19T04:33:35.936Z,297.05
2018-12-19T04:34:36.655Z,297.58
2018-12-19T04:35:35.926Z,297.05
2018-12-19T04:36:35.924Z,297.65
2018-12-19T04:37:35.908Z,296.40
2018-12-19T04:38:35.902Z,297.00
2018-12-19T04:39:35.875Z,296.71
2018-12-19T04:40:35.869Z,296.98
2018-12-19T04:41:35.852Z,297.21
2018-12-19T04:42:35.854Z,296.58
2018-12-19T04:43:35.844Z,296.96
2018-12-19T04:44:35.825Z,296.86
2018-12-19T04:45:35.817Z,297.14
2018-12-19T04:46:35.808Z,297.34
2018-12-19T04:47:35.792Z,297.01
2018-12-19T04:48:35.786Z,296.59
2018-12-19T04:49:35.781Z,296.33
2018-12-19T04:50:35.766Z,296.42
2018-12-19T04:51:35.768Z,296.61
2018-12-19T04:52:35.750Z,297.16
2018-12-19T04:53:36.616Z,297.33
2018-12-19T04:54:35.740Z,297.32
2018-12-19T04:55:35.734Z,297.03
2018-12-19T04:56:35.698Z,297.55
2018-12-19T04:57:35.697Z,297.16
2018-12-19T04:58:35.693Z,297.13
2018-12-19T04:59:35.667Z,297.03
2018-12-19T05:00:35.656Z,297.48
2018-12-19T05:01:35.652Z,297.10
2018-12-19T05:02:35.629Z,297.23
2018-12-19T05:03:35.630Z,296.59
2018-12-19T05:04:35.608Z,297.54
2018-12-19T05:05:35.610Z,297.22
2018-12-19T05:06:35.592Z,296.63
2018-12-19T05:07:35.581Z,297.54
2018-12-19T05:08:35.568Z,297.21
2018-12-19T05:09:35.554Z,296.80
2018-12-19T05:10:35.548Z,297.20
2018-12-19T05:11:35.532Z,297.28
2018-12-19T05:12:35.566Z,298.08
2018-12-19T05:13:35.541Z,297.97
2018-12-19T05:14:35.507Z,297.88
2018-12-19T05:15:35.523Z,297.97
2018-12-19T05:16:35.494Z,297.54
2018-12-19T05:17:35.473Z,297.04
2018-12-19T05:18:35.724Z,297.96
2018-12-19T05:19:35.458Z,297.79
2018-12-19T05:20:35.442Z,297.41
2018-12-19T05:21:35.448Z,298.07
2018-12-19T05:22:35.417Z,296.98
2018-12-19T05:23:35.417Z,297.35
2018-12-19T05:24:35.403Z,298.33
2018-12-19T05:25:35.389Z,298.05
2018-12-19T05:26:35.381Z,298.41
2018-12-19T05:27:35.370Z,298.25
2018-12-19T05:28:35.359Z,297.75
2018-12-19T05:29:35.345Z,297.80
2018-12-19T05:30:35.349Z,298.12
2018-12-19T05:31:35.332Z,297.61
2018-12-19T05:32:35.316Z,297.38
2018-12-19T05:33:35.319Z,297.52
2018-12-19T05:34:35.287Z,297.88
2018-12-19T05:35:35.281Z,297.62
2018-12-19T05:36:35.276Z,297.73
2018-12-19T05:37:35.262Z,297.85
2018-12-19T05:38:35.254Z,297.69
2018-12-19T05:39:35.265Z,297.70
2018-12-19T05:40:35.233Z,297.92
2018-12-19T05:41:36.597Z,297.54
2018-12-19T05:42:35.209Z,297.19
2018-12-19T05:43:35.204Z,296.96
2018-12-19T05:44:35.192Z,297.93
2018-12-19T05:45:35.177Z,297.15
2018-12-19T05:46:35.172Z,297.71
2018-12-19T05:47:35.164Z,296.81
2018-12-19T05:48:35.145Z,297.31
2018-12-19T05:49:35.142Z,296.70
2018-12-19T05:50:35.144Z,297.22
2018-12-19T05:51:35.124Z,297.16
2018-12-19T05:52:35.149Z,297.42
2018-12-19T05:53:35.100Z,296.31
2018-12-19T05:54:35.085Z,296.70
2018-12-19T05:55:35.075Z,296.94
2018-12-19T05:56:35.090Z,297.06
2018-12-19T05:57:35.050Z,297.64
2018-12-19T05:58:35.052Z,297.01
2018-12-19T05:59:35.053Z,297.15
2018-12-19T06:00:35.071Z,296.93
2018-12-19T06:01:35.008Z,296.36
2018-12-19T06:02:35.006Z,296.59
2018-12-19T06:03:34.986Z,296.81
2018-12-19T06:04:34.977Z,296.80
2018-12-19T06:05:34.975Z,296.61
2018-12-19T06:06:34.957Z,296.96
2018-12-19T06:07:34.957Z,295.68
2018-12-19T06:08:34.934Z,295.73
2018-12-19T06:09:34.927Z,296.78
2018-12-19T06:10:34.916Z,296.59
2018-12-19T06:11:34.896Z,296.64
2018-12-19T06:12:34.887Z,296.06
2018-12-19T06:13:34.886Z,296.79
2018-12-19T06:14:34.868Z,296.45
2018-12-19T06:15:34.869Z,296.48
2018-12-19T06:16:34.851Z,296.08
2018-12-19T06:17:34.841Z,296.21
2018-12-19T06:18:34.837Z,296.43
2018-12-19T06:19:34.825Z,296.66
2018-12-19T06:20:34.802Z,296.32
2018-12-19T06:21:34.794Z,296.25
2018-12-19T06:22:34.801Z,296.15
2018-12-19T06:23:34.780Z,296.70
2018-12-19T06:24:34.772Z,296.84
2018-12-19T06:25:34.754Z,295.87
2018-12-19T06:26:34.743Z,296.05
2018-12-19T06:27:34.733Z,296.22
2018-12-19T06:28:34.740Z,296.98
2018-12-19T06:29:34.717Z,295.55
2018-12-19T06:30:34.704Z,295.90
2018-12-19T06:31:34.692Z,295.98
2018-12-19T06:32:34.680Z,296.39
2018-12-19T06:33:34.669Z,296.82
2018-12-19T06:34:34.657Z,296.18
2018-12-19T06:35:34.650Z,296.61
2018-12-19T06:36:35.247Z,295.56
2018-12-19T06:37:34.631Z,296.30
2018-12-19T06:38:34.635Z,296.08
2018-12-19T06:39:34.607Z,295.92
2018-12-19T06:40:34.603Z,296.31
2018-12-19T06:41:34.589Z,295.82
2018-12-19T06:42:34.575Z,296.30
2018-12-19T06:43:34.566Z,295.86
2018-12-19T06:44:34.576Z,295.84
2018-12-19T06:45:34.580Z,295.93
2018-12-19T06:46:34.545Z,295.40
2018-12-19T06:47:34.519Z,296.13
2018-12-19T06:48:34.506Z,295.82
2018-12-19T06:49:34.544Z,296.35
2018-12-19T06:50:34.545Z,295.22
2018-12-19T06:51:34.501Z,295.91
2018-12-19T06:52:34.486Z,295.82
2018-12-19T06:53:34.485Z,296.51
2018-12-19T06:54:34.455Z,296.14
2018-12-19T06:55:34.444Z,295.55
2018-12-19T06:56:34.437Z,295.56
2018-12-19T06:57:34.405Z,295.87
2018-12-19T06:58:34.472Z,296.14
2018-12-19T06:59:34.395Z,295.68
2018-12-19T07:00:34.384Z,295.12
2018-12-19T07:01:34.430Z,295.31
2018-12-19T07:02:34.412Z,295.83
2018-12-19T07:03:34.367Z,295.24
2018-12-19T07:04:34.357Z,295.20
2018-12-19T07:05:34.337Z,296.00
2018-12-19T07:06:34.320Z,296.09
2018-12-19T07:07:34.305Z,295.18
2018-12-19T07:08:34.301Z,295.94
2018-12-19T07:09:34.289Z,295.66
2018-12-19T07:10:39.065Z,295.57
2018-12-19T07:11:35.279Z,295.81
2018-12-19T07:12:34.274Z,296.39
2018-12-19T07:13:34.247Z,294.77
2018-12-19T07:14:34.235Z,296.09
2018-12-19T07:15:34.234Z,296.07
2018-12-19T07:16:34.231Z,295.75
2018-12-19T07:17:34.203Z,295.82
2018-12-19T07:18:34.210Z,296.26
2018-12-19T07:19:34.184Z,295.48
2018-12-19T07:20:34.171Z,295.90
2018-12-19T07:21:34.196Z,295.27
2018-12-19T07:22:34.151Z,294.84
2018-12-19T07:23:34.153Z,295.29
2018-12-19T07:24:34.130Z,295.88
2018-12-19T07:25:34.135Z,295.89
2018-12-19T07:26:34.135Z,295.09
2018-12-19T07:27:34.123Z,295.26
2018-12-19T07:28:34.102Z,295.96
2018-12-19T07:29:34.106Z,295.42
2018-12-19T07:30:34.069Z,295.97
2018-12-19T07:31:34.065Z,295.33
2018-12-19T07:32:34.055Z,295.73
2018-12-19T07:33:34.053Z,295.53
2018-12-19T07:34:34.031Z,295.30
2018-12-19T07:35:34.020Z,295.65
2018-12-19T07:36:33.997Z,294.35
2018-12-19T07:37:33.996Z,295.67
2018-12-19T07:38:33.986Z,294.66
2018-12-19T07:39:33.984Z,295.60
2018-12-19T07:40:33.965Z,295.32
2018-12-19T07:41:33.999Z,295.68
2018-12-19T07:42:33.942Z,294.68
2018-12-19T07:43:33.926Z,295.74
2018-12-19T07:44:33.917Z,296.24
2018-12-19T07:45:33.919Z,295.27
2018-12-19T07:46:33.895Z,295.62
2018-12-19T07:47:33.890Z,295.59
2018-12-19T07:48:33.894Z,295.43
2018-12-19T07:49:33.861Z,295.10
2018-12-19T07:50:33.848Z,295.63
2018-12-19T07:51:33.851Z,296.24
2018-12-19T07:52:33.846Z,295.53
2018-12-19T07:53:33.838Z,295.84
2018-12-19T07:54:33.811Z,295.40
2018-12-19T07:55:33.811Z,296.04
2018-12-19T07:56:33.793Z,295.83
2018-12-19T07:57:33.785Z,296.05
2018-12-19T07:58:33.782Z,296.15
2018-12-19T07:59:33.767Z,296.18
2018-12-19T08:00:33.764Z,296.27
2018-12-19T08:01:33.766Z,296.50
2018-12-19T08:02:33.757Z,295.41
2018-12-19T08:03:33.726Z,295.94
2018-12-19T08:04:33.734Z,295.49
2018-12-19T08:05:33.704Z,295.78
2018-12-19T08:06:33.687Z,295.81
2018-12-19T08:07:33.751Z,296.18
2018-12-19T08:08:33.688Z,295.89
2018-12-19T08:09:33.664Z,295.33
2018-12-19T08:10:33.641Z,295.40
2018-12-19T08:11:33.635Z,296.04
2018-12-19T08:12:36.114Z,296.02
2018-12-19T08:13:33.606Z,296.37
2018-12-19T08:14:33.604Z,295.93
2018-12-19T08:15:33.585Z,295.77
2018-12-19T08:16:33.613Z,295.96
2018-12-19T08:17:33.569Z,295.85
2018-12-19T08:18:33.558Z,295.77
2018-12-19T08:19:33.554Z,296.46
2018-12-19T08:20:33.558Z,295.94
2018-12-19T08:21:33.555Z,295.89
2018-12-19T08:22:34.249Z,295.66
2018-12-19T08:23:33.511Z,296.49
2018-12-19T08:24:33.495Z,295.84
2018-12-19T08:25:33.499Z,295.83
2018-12-19T08:26:33.477Z,295.81
2018-12-19T08:27:33.459Z,296.45
2018-12-19T08:28:33.465Z,295.89
2018-12-19T08:29:33.446Z,296.45
2018-12-19T08:30:33.439Z,295.42
2018-12-19T08:31:33.450Z,296.29
2018-12-19T08:32:33.420Z,296.21
2018-12-19T08:33:33.401Z,295.33
2018-12-19T08:34:33.386Z,296.20
2018-12-19T08:35:33.387Z,296.34
2018-12-19T08:36:33.395Z,296.23
2018-12-19T08:37:33.379Z,296.01
2018-12-19T08:38:33.394Z,295.29
2018-12-19T08:39:33.349Z,296.39
2018-12-19T08:40:33.391Z,296.14
2018-12-19T08:41:33.338Z,295.76
2018-12-19T08:42:33.320Z,296.29
2018-12-19T08:43:33.311Z,295.94
2018-12-19T08:44:33.299Z,295.49
2018-12-19T08:45:33.293Z,296.23
2018-12-19T08:46:33.267Z,296.23
2018-12-19T08:47:33.255Z,295.33
2018-12-19T08:48:33.263Z,295.56
2018-12-19T08:49:33.232Z,295.46
2018-12-19T08:50:33.245Z,296.03
2018-12-19T08:51:33.248Z,295.54
2018-12-19T08:52:33.260Z,295.67
2018-12-19T08:53:33.571Z,296.34
2018-12-19T08:54:33.202Z,295.48
2018-12-19T08:55:33.213Z,295.26
2018-12-19T08:56:33.201Z,295.87
2018-12-19T08:57:33.187Z,296.36
2018-12-19T08:58:33.146Z,296.10
2018-12-19T08:59:33.170Z,295.83
2018-12-19T09:00:33.141Z,295.96
2018-12-19T09:01:33.122Z,295.36
2018-12-19T09:02:33.851Z,296.00
2018-12-19T09:03:33.173Z,296.22
2018-12-19T09:04:33.094Z,296.17
2018-12-19T09:05:33.079Z,295.58
2018-12-19T09:06:33.080Z,296.34
2018-12-19T09:07:33.093Z,296.21
2018-12-19T09:08:33.042Z,296.27
2018-12-19T09:09:33.045Z,296.43
2018-12-19T09:10:33.035Z,295.80
2018-12-19T09:11:33.025Z,296.22
2018-12-19T09:12:33.009Z,295.70
2018-12-19T09:13:33.016Z,295.86
2018-12-19T09:14:33.026Z,296.24
2018-12-19T09:15:33.042Z,296.25
2018-12-19T09:16:32.959Z,295.73
2018-12-19T09:17:32.958Z,296.41
2018-12-19T09:18:32.943Z,295.63
2018-12-19T09:19:32.921Z,295.77
2018-12-19T09:20:33.883Z,295.70
2018-12-19T09:21:32.899Z,295.88
2018-12-19T09:22:32.885Z,295.43
2018-12-19T09:23:32.881Z,296.12
2018-12-19T09:24:32.922Z,295.83
2018-12-19T09:25:32.890Z,295.09
2018-12-19T09:26:32.846Z,295.36
2018-12-19T09:27:32.837Z,295.82
2018-12-19T09:28:32.826Z,295.26
2018-12-19T09:29:32.814Z,295.53
2018-12-19T09:30:32.814Z,295.69
2018-12-19T09:31:32.801Z,295.75
2018-12-19T09:32:32.781Z,296.27
2018-12-19T09:33:32.766Z,296.10
2018-12-19T09:34:32.767Z,295.89
2018-12-19T09:35:32.753Z,295.34
2018-12-19T09:36:32.750Z,295.52
2018-12-19T09:37:32.717Z,296.32
2018-12-19T09:38:32.719Z,296.58
2018-12-19T09:39:32.705Z,296.93
2018-12-19T09:40:32.692Z,296.17
2018-12-19T09:41:32.690Z,296.63
2018-12-19T09:42:32.669Z,295.90
2018-12-19T09:43:32.661Z,296.51
2018-12-19T09:44:32.655Z,296.58
2018-12-19T09:45:32.639Z,296.27
2018-12-19T09:46:32.625Z,296.08
2018-12-19T09:47:32.626Z,296.78
2018-12-19T09:48:32.693Z,296.67
2018-12-19T09:49:32.629Z,296.06
2018-12-19T09:50:32.579Z,296.23
2018-12-19T09:51:32.590Z,296.58
2018-12-19T09:52:32.581Z,295.62
2018-12-19T09:53:32.564Z,296.36
2018-12-19T09:54:32.571Z,296.26
2018-12-19T09:55:32.563Z,295.31
2018-12-19T09:56:32.556Z,295.88
2018-12-19T09:57:32.531Z,296.12
2018-12-19T09:58:32.588Z,294.92
2018-12-19T09:59:32.522Z,295.78
2018-12-19T10:00:32.509Z,295.74
2018-12-19T10:01:32.563Z,295.50
2018-12-19T10:02:32.471Z,296.24
2018-12-19T10:03:32.457Z,295.66
2018-12-19T10:04:32.454Z,296.59
2018-12-19T10:05:32.451Z,296.92
2018-12-19T10:06:32.439Z,296.46
2018-12-19T10:07:32.416Z,296.70
2018-12-19T10:08:32.509Z,296.50
2018-12-19T10:09:32.392Z,296.17
2018-12-19T10:10:32.411Z,296.05
2018-12-19T10:11:32.410Z,296.56
2018-12-19T10:12:32.359Z,296.42
2018-12-19T10:13:32.359Z,296.40
2018-12-19T10:14:32.339Z,296.47
2018-12-19T10:15:32.372Z,296.04
2018-12-19T10:16:32.328Z,296.30
2018-12-19T10:17:32.400Z,296.82
2018-12-19T10:18:32.332Z,296.33
2018-12-19T10:19:32.301Z,295.76
2018-12-19T10:20:32.300Z,295.57
2018-12-19T10:21:32.272Z,295.90
2018-12-19T10:22:32.281Z,295.48
2018-12-19T10:23:32.282Z,295.51
2018-12-19T10:24:32.297Z,296.20
2018-12-19T10:25:32.224Z,296.64
2018-12-19T10:26:32.214Z,296.34
2018-12-19T10:27:32.255Z,296.69
2018-12-19T10:28:32.207Z,296.59
2018-12-19T10:29:32.224Z,296.25
2018-12-19T10:30:32.187Z,296.09
2018-12-19T10:31:32.174Z,296.54
2018-12-19T10:32:32.161Z,296.81
2018-12-19T10:33:32.204Z,296.69
2018-12-19T10:34:32.162Z,297.11
2018-12-19T10:35:32.167Z,296.57
2018-12-19T10:36:32.122Z,296.64
2018-12-19T10:37:32.096Z,296.25
2018-12-19T10:38:32.091Z,296.65
2018-12-19T10:39:32.093Z,296.06
2018-12-19T10:40:33.767Z,296.28
2018-12-19T10:41:33.064Z,296.22
2018-12-19T10:42:32.045Z,296.14
2018-12-19T10:43:32.028Z,296.75
2018-12-19T10:44:32.039Z,297.12
2018-12-19T10:45:32.024Z,297.11
2018-12-19T10:46:32.027Z,296.56
2018-12-19T10:47:32.027Z,296.73
2018-12-19T10:48:31.985Z,296.89
2018-12-19T10:49:31.974Z,297.18
2018-12-19T10:50:32.098Z,296.67
2018-12-19T10:51:31.970Z,297.09
2018-12-19T10:52:31.980Z,297.01
2018-12-19T10:53:31.924Z,297.20
2018-12-19T10:54:31.917Z,296.42
2018-12-19T10:55:31.905Z,296.72
2018-12-19T10:56:31.912Z,296.98
2018-12-19T10:57:31.879Z,297.10
2018-12-19T10:58:32.057Z,296.59
2018-12-19T10:59:31.901Z,296.80
2018-12-19T11:00:32.333Z,296.08
2018-12-19T11:01:31.875Z,297.28
2018-12-19T11:02:31.886Z,297.04
2018-12-19T11:03:31.860Z,297.10
2018-12-19T11:04:31.906Z,297.28
2018-12-19T11:05:31.875Z,296.64
2018-12-19T11:06:31.820Z,297.24
2018-12-19T11:07:31.784Z,297.12
2018-12-19T11:08:31.889Z,296.95
2018-12-19T11:09:31.794Z,296.74
2018-12-19T11:10:31.756Z,296.33
2018-12-19T11:11:32.396Z,297.28
2018-12-19T11:12:32.303Z,296.34
2018-12-19T11:13:31.850Z,296.76
2018-12-19T11:14:31.790Z,296.71
2018-12-19T11:15:31.736Z,296.60
2018-12-19T11:16:31.756Z,296.63
2018-12-19T11:17:31.724Z,296.82
2018-12-19T11:18:31.676Z,296.50
2018-12-19T11:19:31.677Z,295.30
2018-12-19T11:20:31.661Z,296.89
2018-12-19T11:21:31.663Z,296.40
2018-12-19T11:22:31.660Z,296.66
2018-12-19T11:23:31.687Z,296.36
2018-12-19T11:24:31.690Z,296.16
2018-12-19T11:25:31.596Z,296.20
2018-12-19T11:26:31.601Z,296.43
2018-12-19T11:27:31.619Z,296.20
2018-12-19T11:28:31.568Z,296.14
2018-12-19T11:29:31.555Z,296.58
2018-12-19T11:30:31.559Z,296.73
2018-12-19T11:31:31.530Z,296.71
2018-12-19T11:32:31.524Z,296.59
2018-12-19T11:33:32.057Z,296.58
2018-12-19T11:34:31.561Z,296.44
2018-12-19T11:35:32.284Z,296.55
2018-12-19T11:36:31.484Z,296.88
2018-12-19T11:37:31.581Z,296.02
2018-12-19T11:38:31.501Z,296.32
2018-12-19T11:39:31.537Z,296.59
2018-12-19T11:40:31.449Z,295.40
2018-12-19T11:41:31.510Z,295.75
2018-12-19T11:42:31.412Z,296.29
2018-12-19T11:43:31.571Z,296.56
2018-12-19T11:44:31.490Z,296.75
2018-12-19T11:45:31.415Z,296.11
2018-12-19T11:46:31.373Z,296.86
2018-12-19T11:47:31.363Z,296.62
2018-12-19T11:48:31.362Z,296.16
2018-12-19T11:49:31.353Z,296.50
2018-12-19T11:50:31.336Z,296.32
2018-12-19T11:51:31.319Z,296.46
2018-12-19T11:52:31.313Z,295.48
2018-12-19T11:53:31.298Z,296.44
2018-12-19T11:54:31.288Z,296.32
2018-12-19T11:55:31.298Z,296.97
2018-12-19T11:56:31.369Z,296.33
2018-12-19T11:57:31.253Z,296.36
2018-12-19T11:58:31.256Z,296.51
2018-12-19T11:59:31.243Z,296.58
2018-12-19T12:00:31.263Z,296.53
2018-12-19T12:01:31.243Z,296.58
2018-12-19T12:02:31.251Z,296.39
2018-12-19T12:03:31.186Z,296.46
2018-12-19T12:04:31.289Z,296.09
2018-12-19T12:05:31.224Z,296.08
2018-12-19T12:06:31.179Z,296.34
2018-12-19T12:07:31.169Z,297.09
2018-12-19T12:08:31.184Z,296.55
2018-12-19T12:09:31.125Z,296.98
2018-12-19T12:10:31.126Z,296.47
2018-12-19T12:11:31.121Z,296.44
2018-12-19T12:12:31.196Z,297.16
2018-12-19T12:13:31.110Z,296.66
2018-12-19T12:14:31.076Z,296.32
2018-12-19T12:15:31.060Z,296.84
2018-12-19T12:16:31.183Z,296.21
2018-12-19T12:17:31.101Z,296.29
2018-12-19T12:18:31.061Z,295.87
2018-12-19T12:19:31.045Z,297.13
2018-12-19T12:20:31.153Z,296.96
2018-12-19T12:21:30.994Z,296.16
2018-12-19T12:22:30.998Z,296.10
2018-12-19T12:23:31.041Z,296.84
2018-12-19T12:24:31.066Z,296.38
2018-12-19T12:25:31.843Z,295.99
2018-12-19T12:26:30.946Z,296.48
2018-12-19T12:27:30.943Z,296.97
2018-12-19T12:28:30.925Z,296.15